Time;durP1;ratioP1;P1;durP2;ratioP2;P2;SDS_P1;SDS_P2;PMS_P1;PMS_P2;Temp;Humidity;BMP_temperature;BMP_pressure;BME280_temperature;BME280_humidity;BME280_pressure;Samples;Min_cycle;Max_cycle;Signal;HPM_P1;HPM_P2
2024/03/19 00:00:38;;;;;;;16.17;11.03;;;22.60;55.50;;;;;;5030543;28;20175;-71
2024/03/19 00:03:08;;;;;;;19.30;11.00;;;22.60;55.50;;;;;;5030444;28;20168;-71
2024/03/19 00:05:34;;;;;;;13.87;10.10;;;22.60;55.50;;;;;;5030350;28;20506;-71
2024/03/19 00:07:59;;;;;;;15.80;11.17;;;22.60;55.50;;;;;;5030554;28;20414;-71
2024/03/19 00:10:25;;;;;;;14.50;10.33;;;22.60;55.50;;;;;;5030361;28;20594;-71
2024/03/19 00:12:51;;;;;;;13.40;10.50;;;22.60;55.50;;;;;;5030580;28;20254;-71
2024/03/19 00:15:16;;;;;;;16.13;10.10;;;22.60;55.50;;;;;;5030368;28;20202;-71
2024/03/19 00:17:42;;;;;;;15.70;9.10;;;22.60;55.50;;;;;;5030478;28;20176;-72
2024/03/19 00:20:11;;;;;;;15.90;9.80;;;22.60;55.50;;;;;;5030471;28;20188;-71
2024/03/19 00:22:37;;;;;;;14.80;10.47;;;22.60;55.50;;;;;;5030296;28;20183;-71
2024/03/19 00:25:05;;;;;;;13.30;10.00;;;22.60;55.60;;;;;;5012149;28;20447;-71
2024/03/19 00:27:32;;;;;;;14.67;9.97;;;22.60;55.60;;;;;;5030151;28;20824;-72
2024/03/19 00:29:58;;;;;;;14.53;8.47;;;22.60;55.60;;;;;;5030006;28;20457;-71
2024/03/19 00:32:23;;;;;;;13.30;9.50;;;22.60;55.60;;;;;;5030365;28;20414;-71
2024/03/19 00:34:49;;;;;;;15.60;10.60;;;22.60;55.60;;;;;;5030071;28;20191;-71
2024/03/19 00:37:15;;;;;;;14.93;9.70;;;22.60;55.60;;;;;;5029996;28;20175;-71
2024/03/19 00:39:41;;;;;;;15.67;9.40;;;22.60;55.60;;;;;;5030083;28;20230;-71
2024/03/19 00:42:06;;;;;;;16.80;9.80;;;22.60;55.60;;;;;;5030089;28;20414;-71
2024/03/19 00:44:32;;;;;;;16.23;10.40;;;22.60;55.60;;;;;;5029967;28;20597;-71
2024/03/19 00:46:58;;;;;;;14.67;9.30;;;22.60;55.70;;;;;;5012373;28;20179;-69
2024/03/19 00:49:24;;;;;;;11.53;8.93;;;22.60;55.60;;;;;;5030271;28;20552;-71
2024/03/19 00:51:50;;;;;;;14.63;10.80;;;22.60;55.60;;;;;;5030202;28;20999;-70
2024/03/19 00:54:16;;;;;;;19.53;11.00;;;22.60;55.60;;;;;;5029968;28;20438;-71
2024/03/19 00:56:41;;;;;;;13.20;10.00;;;22.50;55.50;;;;;;5029971;28;20175;-72
2024/03/19 00:59:07;;;;;;;14.60;9.57;;;22.50;55.50;;;;;;5029924;28;20302;-71
2024/03/19 01:01:35;;;;;;;16.60;10.63;;;22.50;55.50;;;;;;5030176;28;20538;-71
2024/03/19 01:04:04;;;;;;;16.07;10.23;;;22.50;55.50;;;;;;5029917;28;20421;-71
2024/03/19 01:06:30;;;;;;;14.90;9.63;;;22.50;55.50;;;;;;5030296;28;20921;-71
2024/03/19 01:08:57;;;;;;;12.27;10.23;;;22.50;55.50;;;;;;5032595;28;20457;-71
2024/03/19 01:11:23;;;;;;;14.50;9.00;;;22.50;55.60;;;;;;5015816;28;20427;-70
2024/03/19 01:13:49;;;;;;;11.93;8.43;;;22.50;55.50;;;;;;5033625;28;20513;-69
2024/03/19 01:16:14;;;;;;;18.27;9.80;;;22.50;55.60;;;;;;5033893;28;20215;-71
2024/03/19 01:18:40;;;;;;;17.17;9.90;;;22.50;55.60;;;;;;5015854;28;20555;-71
2024/03/19 01:21:06;;;;;;;19.30;9.40;;;22.50;55.60;;;;;;5033718;28;20180;-71
2024/03/19 01:23:31;;;;;;;13.43;9.27;;;22.50;55.60;;;;;;5033449;28;20393;-71
2024/03/19 01:25:57;;;;;;;14.43;9.07;;;22.50;55.60;;;;;;5033452;28;20442;-72
2024/03/19 01:28:23;;;;;;;13.10;8.57;;;22.50;55.60;;;;;;5033259;28;20184;-69
2024/03/19 01:30:48;;;;;;;13.43;8.30;;;22.50;55.60;;;;;;5033298;28;20705;-71
2024/03/19 01:33:14;;;;;;;13.23;9.67;;;22.50;55.60;;;;;;5033529;28;20186;-70
2024/03/19 01:35:40;;;;;;;15.50;8.80;;;22.50;55.60;;;;;;5033484;28;20541;-71
2024/03/19 01:38:06;;;;;;;11.80;8.53;;;22.50;55.60;;;;;;5033293;28;20234;-71
2024/03/19 01:40:32;;;;;;;15.90;9.17;;;22.50;55.60;;;;;;5033631;28;20684;-71
2024/03/19 01:42:57;;;;;;;13.80;9.83;;;22.50;55.60;;;;;;5033159;28;20214;-71
2024/03/19 01:45:23;;;;;;;12.20;9.20;;;22.50;55.60;;;;;;5033012;28;20482;-71
2024/03/19 01:47:49;;;;;;;10.90;8.07;;;22.50;55.60;;;;;;5033026;28;20172;-71
2024/03/19 01:50:15;;;;;;;13.03;9.80;;;22.50;55.60;;;;;;5033044;28;20551;-71
2024/03/19 01:52:48;;;;;;;14.07;10.00;;;22.50;55.60;;;;;;5033177;28;20426;-71
2024/03/19 01:55:16;;;;;;;13.50;10.00;;;22.50;55.60;;;;;;5032902;28;20202;-71
2024/03/19 01:57:43;;;;;;;10.00;8.47;;;22.50;55.60;;;;;;5032953;28;20406;-71
2024/03/19 02:00:09;;;;;;;11.60;8.57;;;22.40;55.50;;;;;;5032961;28;20844;-71
2024/03/19 02:02:35;;;;;;;12.27;8.10;;;22.50;55.60;;;;;;5033055;28;20996;-71
2024/03/19 02:05:04;;;;;;;13.40;10.00;;;22.50;55.60;;;;;;5032820;28;20449;-72
2024/03/19 02:07:30;;;;;;;12.77;9.30;;;22.50;55.60;;;;;;5033174;28;20426;-71
2024/03/19 02:09:56;;;;;;;12.87;9.20;;;22.40;55.50;;;;;;5032931;28;20497;-71
2024/03/19 02:12:25;;;;;;;10.53;8.93;;;22.40;55.50;;;;;;5032745;28;20460;-71
2024/03/19 02:14:51;;;;;;;14.13;9.13;;;22.50;55.70;;;;;;5032732;28;20249;-71
2024/03/19 02:17:21;;;;;;;12.50;8.23;;;22.50;55.60;;;;;;5032789;28;20415;-71
2024/03/19 02:19:47;;;;;;;10.50;7.23;;;22.50;55.60;;;;;;5014592;28;20411;-72
2024/03/19 02:22:13;;;;;;;11.73;8.70;;;22.40;55.60;;;;;;5032394;28;20410;-72
2024/03/19 02:24:43;;;;;;;11.53;8.10;;;22.40;55.50;;;;;;5032504;28;20433;-70
2024/03/19 02:27:10;;;;;;;10.57;8.27;;;22.40;55.60;;;;;;5032477;28;20183;-71
2024/03/19 02:29:36;;;;;;;10.13;7.57;;;22.40;55.50;;;;;;5014537;28;20548;-71
2024/03/19 02:32:01;;;;;;;12.20;8.70;;;22.40;55.50;;;;;;5032383;28;20580;-71
2024/03/19 02:34:27;;;;;;;10.80;8.27;;;22.40;55.50;;;;;;5032244;28;20422;-71
2024/03/19 02:36:53;;;;;;;12.43;8.57;;;22.40;55.50;;;;;;5032310;28;20171;-69
2024/03/19 02:39:19;;;;;;;14.57;9.00;;;22.40;55.50;;;;;;5032098;28;20245;-71
2024/03/19 02:41:44;;;;;;;10.93;8.43;;;22.40;55.50;;;;;;5032072;28;20175;-71
2024/03/19 02:44:10;;;;;;;12.60;8.00;;;22.40;55.50;;;;;;5014029;28;20211;-71
2024/03/19 02:46:36;;;;;;;12.50;8.90;;;22.40;55.50;;;;;;5032128;28;20624;-71
2024/03/19 02:49:03;;;;;;;12.67;7.93;;;22.40;55.60;;;;;;5031860;28;20702;-71
2024/03/19 02:51:29;;;;;;;14.60;9.13;;;22.40;56.10;;;;;;5014125;28;20172;-70
2024/03/19 02:53:54;;;;;;;11.80;8.20;;;22.40;55.50;;;;;;5031770;28;20413;-71
2024/03/19 02:56:20;;;;;;;10.67;8.73;;;22.40;55.50;;;;;;5032113;28;20418;-70
2024/03/19 02:58:46;;;;;;;11.13;8.70;;;22.40;55.50;;;;;;5031768;28;20179;-71
2024/03/19 03:01:11;;;;;;;10.77;7.93;;;22.40;55.50;;;;;;5013947;28;20670;-70
2024/03/19 03:03:37;;;;;;;10.90;8.23;;;22.40;55.50;;;;;;5032207;28;20225;-71
2024/03/19 03:06:03;;;;;;;11.40;8.37;;;22.40;55.60;;;;;;5031592;28;20227;-71
2024/03/19 03:08:28;;;;;;;11.83;8.43;;;22.40;55.50;;;;;;5031585;28;20278;-71
2024/03/19 03:10:54;;;;;;;11.10;7.23;;;22.40;55.60;;;;;;5031525;28;20631;-71
2024/03/19 03:13:20;;;;;;;11.30;6.97;;;22.40;55.60;;;;;;5031768;28;20176;-71
2024/03/19 03:15:45;;;;;;;11.37;8.13;;;22.40;55.60;;;;;;5031566;28;20195;-71
2024/03/19 03:18:11;;;;;;;10.40;8.10;;;22.40;55.60;;;;;;5031312;28;20172;-71
2024/03/19 03:20:37;;;;;;;13.57;7.63;;;22.40;55.50;;;;;;5031497;28;20637;-71
2024/03/19 03:23:04;;;;;;;11.77;7.37;;;22.40;55.50;;;;;;5031374;28;20602;-71
2024/03/19 03:25:31;;;;;;;11.30;8.13;;;22.40;55.60;;;;;;5031269;28;20442;-71
2024/03/19 03:27:58;;;;;;;9.80;7.67;;;22.40;55.60;;;;;;5031327;28;20438;-69
2024/03/19 03:30:24;;;;;;;11.73;7.80;;;22.40;55.50;;;;;;5030390;28;20454;-72
2024/03/19 03:32:50;;;;;;;11.20;7.93;;;22.40;55.50;;;;;;5031306;28;20414;-69
2024/03/19 03:35:17;;;;;;;12.17;7.30;;;22.40;55.50;;;;;;5030959;28;20449;-71
2024/03/19 03:37:43;;;;;;;12.03;8.10;;;22.40;55.60;;;;;;5031106;28;20411;-71
2024/03/19 03:40:14;;;;;;;8.70;7.07;;;22.40;55.50;;;;;;5031053;28;20545;-71
2024/03/19 03:42:41;;;;;;;10.70;7.40;;;22.40;55.60;;;;;;5031031;28;20156;-72
2024/03/19 03:45:07;;;;;;;9.30;7.00;;;22.40;55.60;;;;;;5030802;28;20461;-70
2024/03/19 03:47:33;;;;;;;10.97;7.70;;;22.40;55.50;;;;;;5030748;28;20410;-71
2024/03/19 03:49:59;;;;;;;9.80;7.57;;;22.40;55.60;;;;;;5030589;28;21124;-71
2024/03/19 03:52:29;;;;;;;10.50;8.00;;;22.40;55.60;;;;;;5030970;28;20203;-71
2024/03/19 03:54:55;;;;;;;11.03;7.10;;;22.40;55.60;;;;;;5030646;28;20184;-71
2024/03/19 03:57:20;;;;;;;10.70;7.43;;;22.40;55.60;;;;;;5030759;28;20417;-71
2024/03/19 03:59:47;;;;;;;9.63;6.70;;;22.40;55.60;;;;;;5030768;28;20749;-71
2024/03/19 04:02:13;;;;;;;11.93;7.77;;;22.40;55.60;;;;;;5030731;28;20218;-71
2024/03/19 04:04:38;;;;;;;9.40;6.90;;;22.40;55.60;;;;;;5012499;28;20852;-71
2024/03/19 04:07:04;;;;;;;9.97;6.80;;;22.40;55.60;;;;;;5030565;28;20284;-71
2024/03/19 04:09:30;;;;;;;9.30;6.80;;;22.40;55.60;;;;;;5030629;28;20674;-71
2024/03/19 04:11:55;;;;;;;8.07;6.47;;;22.40;55.60;;;;;;5030664;28;20175;-69
2024/03/19 04:14:21;;;;;;;11.70;6.97;;;22.40;55.60;;;;;;5030328;28;20199;-71
2024/03/19 04:16:46;;;;;;;11.30;7.30;;;22.40;55.60;;;;;;5030379;28;20275;-71
2024/03/19 04:19:12;;;;;;;11.67;7.63;;;22.40;55.60;;;;;;5030456;28;20179;-71
2024/03/19 04:21:37;;;;;;;9.47;7.27;;;22.30;55.50;;;;;;5030356;28;20190;-71
2024/03/19 04:24:03;;;;;;;10.93;7.40;;;22.40;55.60;;;;;;5012482;28;20258;-71
2024/03/19 04:26:29;;;;;;;10.10;7.20;;;22.40;55.60;;;;;;5013067;28;20611;-70
2024/03/19 04:28:54;;;;;;;9.23;6.67;;;22.40;55.60;;;;;;5030067;28;20249;-71
2024/03/19 04:31:20;;;;;;;6.47;5.23;;;22.30;55.50;;;;;;5030339;28;20175;-71
2024/03/19 04:33:46;;;;;;;9.53;7.00;;;22.40;55.60;;;;;;5030377;28;20632;-71
2024/03/19 04:36:12;;;;;;;9.73;7.37;;;22.40;55.60;;;;;;5029889;28;20583;-71
2024/03/19 04:38:37;;;;;;;8.77;6.47;;;22.40;55.60;;;;;;5030554;28;20183;-71
2024/03/19 04:41:03;;;;;;;10.43;7.03;;;22.30;55.50;;;;;;5030099;28;20674;-71
2024/03/19 04:43:29;;;;;;;9.20;6.20;;;22.40;55.60;;;;;;5032010;28;20532;-71
2024/03/19 04:45:54;;;;;;;8.07;6.77;;;22.40;55.60;;;;;;5033875;28;20566;-72
2024/03/19 04:48:20;;;;;;;9.90;6.60;;;22.40;55.60;;;;;;5034144;28;20178;-71
2024/03/19 04:50:45;;;;;;;10.30;7.30;;;22.40;55.60;;;;;;5034402;28;20298;-71
2024/03/19 04:53:11;;;;;;;8.73;6.20;;;22.40;55.60;;;;;;5016350;28;20217;-71
2024/03/19 04:55:37;;;;;;;10.00;6.93;;;22.40;55.60;;;;;;5016079;28;20195;-71
2024/03/19 04:58:05;;;;;;;9.30;7.23;;;22.40;55.60;;;;;;5033892;28;20182;-72
2024/03/19 05:00:30;;;;;;;7.00;6.20;;;22.40;55.60;;;;;;5032685;28;20175;-71
2024/03/19 05:02:56;;;;;;;8.30;6.70;;;22.40;55.60;;;;;;5016053;28;20434;-71
2024/03/19 05:05:22;;;;;;;9.70;7.40;;;22.40;55.60;;;;;;5031851;28;20195;-71
2024/03/19 05:07:47;;;;;;;6.80;5.73;;;22.40;55.60;;;;;;5033543;28;20187;-71
2024/03/19 05:10:13;;;;;;;7.50;6.33;;;22.40;55.60;;;;;;5033282;28;20242;-71
2024/03/19 05:12:38;;;;;;;8.93;6.23;;;22.40;55.60;;;;;;5034025;28;20634;-71
2024/03/19 05:15:06;;;;;;;10.27;6.40;;;22.40;55.60;;;;;;5033639;28;20195;-70
2024/03/19 05:17:32;;;;;;;7.60;6.00;;;22.40;55.60;;;;;;5016438;28;20179;-71
2024/03/19 05:19:57;;;;;;;10.80;6.70;;;22.40;55.60;;;;;;5033896;28;20421;-71
2024/03/19 05:22:23;;;;;;;10.27;7.50;;;22.40;55.50;;;;;;5033665;28;20449;-71
2024/03/19 05:24:49;;;;;;;8.57;6.00;;;22.40;55.50;;;;;;5033490;28;20203;-71
2024/03/19 05:27:14;;;;;;;9.60;6.20;;;22.40;55.50;;;;;;5015589;28;20274;-71
2024/03/19 05:29:40;;;;;;;9.63;5.97;;;22.40;55.50;;;;;;5033323;28;20191;-71
2024/03/19 05:32:06;;;;;;;7.33;6.40;;;22.40;55.50;;;;;;5033318;28;20780;-71
2024/03/19 05:34:32;;;;;;;7.57;5.73;;;22.40;55.50;;;;;;5033243;28;20204;-69
2024/03/19 05:36:58;;;;;;;8.60;7.30;;;22.40;55.50;;;;;;5015469;28;20194;-71
2024/03/19 05:39:24;;;;;;;10.37;8.43;;;22.40;55.30;;;;;;5015286;28;20884;-71
2024/03/19 05:41:50;;;;;;;9.73;7.43;;;22.40;54.50;;;;;;5033473;28;20200;-70
2024/03/19 05:44:16;;;;;;;8.33;7.37;;;22.40;53.70;;;;;;5033205;28;20831;-71
2024/03/19 05:46:41;;;;;;;8.50;6.27;;;22.40;53.10;;;;;;5033404;28;20419;-71
2024/03/19 05:49:09;;;;;;;6.37;5.63;;;22.40;53.20;;;;;;5033098;28;20288;-71
2024/03/19 05:51:35;;;;;;;8.50;6.00;;;22.40;53.60;;;;;;5033139;28;20172;-71
2024/03/19 05:54:00;;;;;;;6.73;5.47;;;22.40;53.70;;;;;;5032747;28;20417;-71
2024/03/19 05:56:26;;;;;;;6.60;5.30;;;22.40;53.80;;;;;;5033011;28;20176;-72
2024/03/19 05:58:52;;;;;;;6.80;5.07;;;22.40;54.00;;;;;;5032996;28;20175;-72
2024/03/19 06:01:18;;;;;;;8.83;6.13;;;22.30;54.10;;;;;;5032785;28;20674;-70
2024/03/19 06:03:44;;;;;;;5.00;4.50;;;22.40;54.30;;;;;;5015001;28;20185;-71
2024/03/19 06:06:09;;;;;;;6.60;5.10;;;22.40;54.50;;;;;;5032863;28;20520;-72
2024/03/19 06:08:36;;;;;;;7.30;5.90;;;22.30;54.50;;;;;;5032490;28;20200;-71
2024/03/19 06:11:02;;;;;;;6.80;4.90;;;22.40;54.60;;;;;;5032651;28;20262;-71
2024/03/19 06:13:28;;;;;;;6.27;4.67;;;22.40;54.70;;;;;;5014429;28;20425;-70
2024/03/19 06:15:54;;;;;;;5.03;4.53;;;22.40;54.70;;;;;;5032728;28;20430;-70
2024/03/19 06:18:19;;;;;;;5.53;4.67;;;22.40;54.70;;;;;;5031950;28;20191;-71
2024/03/19 06:20:45;;;;;;;5.53;4.43;;;22.40;54.70;;;;;;5032150;28;20168;-70
2024/03/19 06:23:11;;;;;;;7.00;4.70;;;22.40;54.80;;;;;;5031966;28;20675;-69
2024/03/19 06:25:38;;;;;;;5.53;4.70;;;22.40;54.80;;;;;;5032042;28;20431;-70
2024/03/19 06:28:04;;;;;;;8.00;5.53;;;22.40;54.80;;;;;;5031807;28;20550;-70
2024/03/19 06:30:31;;;;;;;6.00;4.70;;;22.40;54.80;;;;;;5031912;28;20461;-71
2024/03/19 06:32:57;;;;;;;5.80;4.20;;;22.40;54.80;;;;;;5031961;28;20828;-70
2024/03/19 06:35:23;;;;;;;7.67;4.63;;;22.40;54.90;;;;;;5032031;28;20469;-71
2024/03/19 06:37:49;;;;;;;5.80;4.60;;;22.40;54.90;;;;;;5031873;28;20410;-70
2024/03/19 06:40:14;;;;;;;5.20;4.70;;;22.40;54.90;;;;;;5031896;28;20175;-72
2024/03/19 06:42:40;;;;;;;8.87;4.37;;;22.40;54.90;;;;;;5031694;28;20552;-70
2024/03/19 06:45:08;;;;;;;6.60;5.17;;;22.40;54.90;;;;;;5031535;28;20589;-70
2024/03/19 06:47:37;;;;;;;7.10;5.03;;;22.40;54.90;;;;;;5031663;28;20195;-70
2024/03/19 06:50:13;;;;;;;6.57;5.10;;;22.40;54.90;;;;;;5031450;28;20461;-71
2024/03/19 06:52:42;;;;;;;6.10;4.97;;;22.40;55.00;;;;;;5031813;28;20892;-70
2024/03/19 06:55:08;;;;;;;5.90;4.60;;;22.40;54.90;;;;;;5031214;28;20438;-71
2024/03/19 06:57:33;;;;;;;6.47;4.90;;;22.50;55.10;;;;;;5031260;28;20402;-70
2024/03/19 06:59:59;;;;;;;6.00;4.83;;;22.50;55.10;;;;;;5031386;28;20422;-71
2024/03/19 07:02:26;;;;;;;5.57;4.90;;;22.50;55.10;;;;;;5013473;28;20317;-70
2024/03/19 07:04:52;;;;;;;5.20;4.10;;;22.50;55.10;;;;;;5013137;28;20765;-71
2024/03/19 07:07:19;;;;;;;6.07;4.53;;;22.50;55.10;;;;;;5030938;28;20505;-70
2024/03/19 07:09:48;;;;;;;5.33;4.67;;;22.50;55.10;;;;;;5031318;28;20195;-71
2024/03/19 07:12:14;;;;;;;4.67;4.27;;;22.50;55.10;;;;;;5031081;28;20415;-70
2024/03/19 07:14:41;;;;;;;6.53;4.60;;;22.50;55.10;;;;;;5031009;28;20426;-71
2024/03/19 07:17:07;;;;;;;7.87;5.30;;;22.50;55.10;;;;;;5031059;28;21087;-72
2024/03/19 07:19:33;;;;;;;5.27;4.40;;;22.50;55.10;;;;;;5030772;28;20411;-70
2024/03/19 07:21:58;;;;;;;5.83;4.80;;;22.50;55.10;;;;;;5030985;28;20411;-71
2024/03/19 07:24:24;;;;;;;5.60;4.17;;;22.50;55.10;;;;;;5030801;28;20571;-70
2024/03/19 07:26:50;;;;;;;5.93;4.90;;;22.50;55.10;;;;;;5031103;28;20599;-71
2024/03/19 07:29:15;;;;;;;6.73;5.10;;;22.50;55.10;;;;;;5030840;28;20253;-71
2024/03/19 07:31:42;;;;;;;6.63;4.53;;;22.50;55.10;;;;;;5030964;28;20547;-71
2024/03/19 07:34:08;;;;;;;4.97;4.17;;;22.50;55.10;;;;;;5030577;28;20195;-71
2024/03/19 07:36:35;;;;;;;5.70;4.50;;;22.50;55.10;;;;;;5030865;28;20425;-71
2024/03/19 07:39:03;;;;;;;5.80;4.50;;;22.50;55.20;;;;;;5030589;28;20419;-70
2024/03/19 07:41:29;;;;;;;6.10;4.70;;;22.50;55.10;;;;;;5030577;28;20437;-69
2024/03/19 07:43:54;;;;;;;6.17;4.60;;;22.50;55.20;;;;;;5030224;28;20505;-70
2024/03/19 07:46:21;;;;;;;7.40;4.33;;;22.60;55.30;;;;;;5030580;28;20914;-71
2024/03/19 07:48:47;;;;;;;6.80;4.70;;;22.60;55.30;;;;;;5030457;28;20462;-71
2024/03/19 07:51:14;;;;;;;6.03;4.90;;;22.60;55.30;;;;;;5012538;28;20182;-70
2024/03/19 07:53:40;;;;;;;6.60;4.60;;;22.60;55.30;;;;;;5030347;28;20179;-71
2024/03/19 07:56:05;;;;;;;7.10;4.97;;;22.60;55.80;;;;;;5030204;28;20500;-70
2024/03/19 07:58:31;;;;;;;4.50;4.10;;;22.60;55.30;;;;;;5030321;28;20406;-72
2024/03/19 08:00:57;;;;;;;6.77;4.90;;;22.60;55.30;;;;;;5030493;28;20254;-71
2024/03/19 08:03:22;;;;;;;6.90;5.07;;;22.60;55.30;;;;;;5030368;28;20183;-72
2024/03/19 08:05:57;;;;;;;5.73;4.87;;;22.60;55.30;;;;;;5030291;28;20227;-72
2024/03/19 08:08:22;;;;;;;6.90;5.27;;;22.60;55.30;;;;;;5030223;28;20156;-72
2024/03/19 08:10:48;;;;;;;5.67;4.23;;;22.60;55.30;;;;;;5030173;28;20498;-71
2024/03/19 08:13:14;;;;;;;6.30;4.80;;;22.60;55.30;;;;;;5030338;28;20596;-72
2024/03/19 08:15:39;;;;;;;6.90;4.50;;;22.60;55.30;;;;;;5029996;28;20191;-72
2024/03/19 08:18:07;;;;;;;4.83;3.63;;;22.60;55.30;;;;;;5012074;28;20640;-72
2024/03/19 08:20:35;;;;;;;5.00;4.37;;;22.60;55.30;;;;;;5030243;28;20698;-72
2024/03/19 08:23:02;;;;;;;5.63;3.60;;;22.60;55.30;;;;;;5029914;28;20982;-72
2024/03/19 08:25:27;;;;;;;5.67;4.63;;;22.60;55.30;;;;;;5032172;28;20495;-71
2024/03/19 08:27:53;;;;;;;5.67;4.40;;;22.60;55.30;;;;;;5031207;28;20426;-69
2024/03/19 08:30:19;;;;;;;5.40;3.90;;;22.60;55.30;;;;;;5032182;28;20679;-70
2024/03/19 08:32:45;;;;;;;7.27;4.50;;;22.60;55.30;;;;;;5031779;28;20172;-71
2024/03/19 08:35:11;;;;;;;6.37;4.40;;;22.60;55.90;;;;;;5031873;28;20430;-69
2024/03/19 08:37:37;;;;;;;6.03;4.50;;;22.60;55.30;;;;;;5032173;28;20180;-70
2024/03/19 08:40:06;;;;;;;5.00;4.13;;;22.60;55.30;;;;;;5032050;28;20273;-71
2024/03/19 08:42:35;;;;;;;8.50;4.43;;;22.60;55.30;;;;;;5031978;28;20180;-70
2024/03/19 08:45:03;;;;;;;7.90;4.20;;;22.60;55.30;;;;;;5031583;28;20457;-71
2024/03/19 08:47:29;;;;;;;5.43;3.70;;;22.60;55.30;;;;;;5032374;28;20418;-71
2024/03/19 08:49:55;;;;;;;6.67;4.53;;;22.60;55.30;;;;;;5031868;28;20461;-71
2024/03/19 08:52:21;;;;;;;4.03;3.63;;;22.60;55.30;;;;;;5032129;28;20190;-70
2024/03/19 08:54:50;;;;;;;8.60;4.93;;;22.70;55.30;;;;;;5032089;28;20860;-70
2024/03/19 08:57:16;;;;;;;7.93;4.30;;;22.70;55.30;;;;;;5031938;28;20513;-69
2024/03/19 08:59:41;;;;;;;4.80;3.93;;;22.70;55.30;;;;;;5013634;28;20454;-69
2024/03/19 09:02:08;;;;;;;5.13;4.13;;;22.70;55.40;;;;;;5031739;28;20917;-71
2024/03/19 09:04:37;;;;;;;5.57;4.60;;;22.70;55.40;;;;;;5032075;28;20581;-70
2024/03/19 09:07:03;;;;;;;5.90;4.23;;;22.70;55.40;;;;;;5032123;28;20453;-68
2024/03/19 09:09:29;;;;;;;5.83;4.00;;;22.70;55.40;;;;;;5031769;28;20457;-69
2024/03/19 09:11:54;;;;;;;5.27;3.73;;;22.70;55.40;;;;;;5031167;28;20789;-71
2024/03/19 09:14:20;;;;;;;6.77;4.67;;;22.70;55.40;;;;;;5031225;28;20275;-69
2024/03/19 09:16:46;;;;;;;4.37;3.47;;;22.70;55.40;;;;;;5031366;28;20232;-69
2024/03/19 09:19:12;;;;;;;5.07;3.77;;;22.70;55.40;;;;;;5031232;28;20214;-68
2024/03/19 09:21:37;;;;;;;4.13;3.50;;;22.70;55.40;;;;;;5031179;28;20191;-70
2024/03/19 09:24:03;;;;;;;4.80;3.90;;;22.70;55.50;;;;;;5030690;28;20418;-68
2024/03/19 09:26:29;;;;;;;5.60;4.60;;;22.80;55.50;;;;;;5031026;28;20174;-69
2024/03/19 09:28:58;;;;;;;7.43;4.97;;;22.80;55.50;;;;;;5013866;28;20207;-70
2024/03/19 09:31:24;;;;;;;4.90;3.97;;;22.80;55.60;;;;;;5034958;28;20409;-69
2024/03/19 09:33:49;;;;;;;7.90;4.03;;;22.80;55.60;;;;;;5035286;28;20910;-69
2024/03/19 09:36:15;;;;;;;5.00;3.80;;;22.80;55.60;;;;;;5035227;28;20176;-68
2024/03/19 09:38:48;;;;;;;8.00;4.00;;;22.80;55.60;;;;;;5035070;28;20164;-70
2024/03/19 09:41:15;;;;;;;5.27;3.63;;;22.80;55.60;;;;;;5035077;28;20156;-70
2024/03/19 09:43:41;;;;;;;5.10;4.10;;;22.80;55.60;;;;;;5035378;28;20402;-71
2024/03/19 09:46:07;;;;;;;7.10;4.50;;;22.80;55.60;;;;;;5034940;28;20438;-71
2024/03/19 09:48:33;;;;;;;4.27;3.33;;;22.80;55.60;;;;;;5035136;28;20765;-69
2024/03/19 09:51:00;;;;;;;6.73;4.80;;;22.80;55.60;;;;;;5034969;28;20178;-70
2024/03/19 09:53:28;;;;;;;5.80;3.70;;;22.80;56.10;;;;;;5034579;28;20406;-70
2024/03/19 09:55:53;;;;;;;5.07;3.93;;;22.90;55.60;;;;;;5034773;28;20775;-70
2024/03/19 09:58:23;;;;;;;4.37;3.50;;;22.90;55.60;;;;;;5016388;28;20493;-70
2024/03/19 10:00:52;;;;;;;4.13;3.40;;;22.90;55.60;;;;;;5034619;28;20254;-70
2024/03/19 10:03:18;;;;;;;4.90;4.23;;;22.90;55.60;;;;;;5015870;28;20512;-69
2024/03/19 10:05:43;;;;;;;4.77;3.90;;;22.90;55.60;;;;;;5033990;28;20454;-72
2024/03/19 10:08:14;;;;;;;3.73;3.33;;;22.90;55.60;;;;;;5034175;28;20670;-69
2024/03/19 10:10:50;;;;;;;6.67;4.67;;;22.90;55.60;;;;;;5034515;28;20191;-71
2024/03/19 10:13:16;;;;;;;4.83;3.30;;;22.90;55.60;;;;;;5034365;28;20386;-68
2024/03/19 10:15:42;;;;;;;6.80;4.13;;;23.00;55.70;;;;;;5034324;28;20434;-69
2024/03/19 10:18:11;;;;;;;5.13;3.60;;;22.90;55.60;;;;;;5034780;28;20585;-69
2024/03/19 10:20:37;;;;;;;5.50;3.53;;;23.00;55.70;;;;;;5034031;28;20198;-69
2024/03/19 10:23:04;;;;;;;5.27;3.93;;;23.00;55.70;;;;;;5034745;28;20418;-69
2024/03/19 10:25:29;;;;;;;4.70;4.20;;;23.00;55.70;;;;;;5033844;28;20507;-70
2024/03/19 10:27:55;;;;;;;7.00;4.00;;;23.00;55.70;;;;;;5033641;28;20414;-69
2024/03/19 10:30:24;;;;;;;5.03;3.80;;;23.00;55.70;;;;;;5034262;28;20693;-69
2024/03/19 10:32:50;;;;;;;5.87;3.93;;;23.00;55.70;;;;;;5033984;28;20218;-69
2024/03/19 10:35:23;;;;;;;3.90;3.30;;;23.00;55.70;;;;;;5034258;28;20438;-70
2024/03/19 10:37:51;;;;;;;5.83;4.40;;;23.00;55.70;;;;;;5016366;28;20670;-69
2024/03/19 10:40:18;;;;;;;4.97;3.63;;;23.00;55.70;;;;;;5033875;28;20487;-70
2024/03/19 10:42:47;;;;;;;4.83;4.17;;;23.10;55.80;;;;;;5034445;28;20437;-70
2024/03/19 10:45:21;;;;;;;5.20;3.70;;;23.10;55.80;;;;;;5033868;28;20450;-68
2024/03/19 10:47:48;;;;;;;4.40;3.37;;;23.10;55.70;;;;;;5034062;28;20414;-70
2024/03/19 10:50:19;;;;;;;8.93;4.10;;;23.10;55.70;;;;;;5016687;28;20450;-69
2024/03/19 10:53:10;;;;;;;4.37;3.63;;;23.00;55.60;;;;;;5016537;28;20422;-69
2024/03/19 10:55:38;;;;;;;4.60;3.40;;;23.10;55.60;;;;;;5034115;28;20434;-68
2024/03/19 10:58:05;;;;;;;5.33;3.83;;;23.10;55.70;;;;;;5034682;28;20425;-69
2024/03/19 11:00:31;;;;;;;4.60;4.10;;;23.00;55.60;;;;;;5034369;28;20420;-70
2024/03/19 11:03:01;;;;;;;4.47;3.57;;;23.00;55.60;;;;;;5016529;28;20501;-69
2024/03/19 11:05:27;;;;;;;5.03;3.80;;;23.00;55.60;;;;;;5034415;28;20557;-70
2024/03/19 11:07:56;;;;;;;3.40;2.80;;;23.00;55.50;;;;;;5034123;28;20406;-69
2024/03/19 11:10:32;;;;;;;5.90;4.10;;;23.00;55.50;;;;;;5034283;28;20465;-69
2024/03/19 11:13:06;;;;;;;4.60;3.20;;;23.00;55.50;;;;;;5033848;28;20410;-70
2024/03/19 11:15:33;;;;;;;4.53;3.50;;;23.00;55.50;;;;;;5033854;28;20434;-69
2024/03/19 11:18:29;;;;;;;5.60;4.17;;;23.00;55.50;;;;;;5034258;28;20402;-69
2024/03/19 11:20:56;;;;;;;4.10;3.37;;;23.00;55.50;;;;;;5021259;28;20426;-70
2024/03/19 11:23:25;;;;;;;4.63;3.77;;;23.00;55.50;;;;;;5033540;28;20643;-70
2024/03/19 11:25:54;;;;;;;4.27;3.10;;;23.00;55.50;;;;;;5033872;28;21026;-70
2024/03/19 11:28:24;;;;;;;4.10;3.67;;;23.00;55.50;;;;;;5033781;28;20407;-71
2024/03/19 11:30:54;;;;;;;4.83;3.50;;;23.00;55.50;;;;;;5033702;28;20821;-70
2024/03/19 11:33:21;;;;;;;6.53;3.57;;;23.00;55.50;;;;;;5033706;28;20407;-69
2024/03/19 11:35:47;;;;;;;5.43;3.40;;;23.00;55.50;;;;;;5033060;28;20434;-71
2024/03/19 11:38:16;;;;;;;4.00;3.33;;;23.00;55.50;;;;;;5033750;28;20944;-69
2024/03/19 11:40:44;;;;;;;5.10;3.47;;;23.00;55.50;;;;;;5033845;28;21251;-71
2024/03/19 11:43:18;;;;;;;3.87;3.47;;;23.00;55.60;;;;;;5015666;28;20430;-69
2024/03/19 11:45:45;;;;;;;4.27;3.40;;;23.00;55.60;;;;;;5033456;28;20465;-70
2024/03/19 11:48:20;;;;;;;6.27;3.70;;;23.00;55.60;;;;;;5033253;28;20457;-70
2024/03/19 11:50:47;;;;;;;4.43;3.50;;;23.00;55.60;;;;;;5015772;28;20840;-71
2024/03/19 11:53:13;;;;;;;6.70;4.60;;;22.90;55.60;;;;;;5033053;28;20995;-71
2024/03/19 11:55:39;;;;;;;6.90;4.17;;;22.90;55.60;;;;;;5033447;28;20426;-69
2024/03/19 11:58:06;;;;;;;7.70;4.80;;;22.90;55.60;;;;;;5014998;28;20199;-70
2024/03/19 12:00:32;;;;;;;11.77;6.30;;;22.90;55.60;;;;;;5032467;28;20426;-70
2024/03/19 12:02:58;;;;;;;12.23;6.33;;;22.90;55.60;;;;;;5032649;28;20436;-68
2024/03/19 12:05:27;;;;;;;14.20;6.07;;;22.90;55.60;;;;;;5014438;28;20284;-70
2024/03/19 12:07:52;;;;;;;13.00;7.50;;;22.90;55.60;;;;;;5032835;28;20203;-70
2024/03/19 12:10:23;;;;;;;15.03;8.37;;;22.90;55.60;;;;;;5032185;28;20510;-69
2024/03/19 12:12:54;;;;;;;17.47;8.93;;;23.00;55.70;;;;;;5032408;28;20597;-69
2024/03/19 12:15:21;;;;;;;18.37;9.40;;;23.00;55.60;;;;;;5032480;28;20802;-69
2024/03/19 12:17:48;;;;;;;15.47;8.63;;;23.00;55.70;;;;;;5032685;28;20421;-71
2024/03/19 12:20:15;;;;;;;15.20;9.20;;;23.00;55.60;;;;;;5032257;28;20768;-70
2024/03/19 12:22:45;;;;;;;23.10;10.47;;;23.00;55.60;;;;;;5031926;28;20468;-70
2024/03/19 12:25:11;;;;;;;15.10;9.10;;;23.00;55.60;;;;;;5032281;28;20434;-69
2024/03/19 12:27:40;;;;;;;17.20;11.03;;;23.00;55.60;;;;;;5031701;28;20427;-70
2024/03/19 12:30:19;;;;;;;15.50;9.37;;;23.00;55.60;;;;;;5031670;28;20519;-69
2024/03/19 12:32:59;;;;;;;11.93;8.93;;;23.00;55.50;;;;;;5031846;28;20391;-70
2024/03/19 12:35:25;;;;;;;13.00;8.63;;;23.00;55.50;;;;;;5013999;28;20438;-70
2024/03/19 12:37:50;;;;;;;13.60;9.10;;;22.90;55.40;;;;;;5032264;28;20421;-70
2024/03/19 12:40:18;;;;;;;13.30;7.70;;;23.00;55.40;;;;;;5013752;28;20550;-70